createdAt,value
2023-02-02T00:00:56.651Z,4.32
2023-02-02T00:03:23.638Z,4.10
2023-02-02T00:05:52.913Z,4.35
2023-02-02T00:08:21.418Z,4.16
2023-02-02T00:10:48.656Z,4.12
2023-02-02T00:13:15.519Z,4.22
2023-02-02T00:16:02.796Z,4.17
2023-02-02T00:19:03.799Z,4.18
2023-02-02T00:22:01.206Z,4.17
2023-02-02T00:24:28.233Z,4.13
2023-02-02T00:27:00.152Z,4.29
2023-02-02T00:29:30.343Z,4.26
2023-02-02T00:31:58.054Z,4.11
2023-02-02T00:34:25.926Z,4.19
2023-02-02T00:36:53.052Z,3.85
2023-02-02T00:39:25.429Z,4.14
2023-02-02T00:41:52.860Z,3.66
2023-02-02T00:44:38.249Z,3.94
2023-02-02T00:47:05.364Z,4.03
2023-02-02T00:49:32.247Z,4.23
2023-02-02T00:52:00.536Z,4.27
2023-02-02T00:54:28.263Z,3.63
2023-02-02T00:57:15.776Z,4.05
2023-02-02T00:59:56.360Z,3.95
2023-02-02T01:02:43.807Z,4.03
2023-02-02T01:05:24.579Z,4.12
2023-02-02T01:07:53.659Z,3.37
2023-02-02T01:10:20.741Z,3.62
2023-02-02T01:12:47.697Z,3.71
2023-02-02T01:15:14.735Z,3.49
2023-02-02T01:18:01.815Z,3.63
2023-02-02T01:20:42.861Z,3.54
2023-02-02T01:23:09.830Z,3.47
2023-02-02T01:25:38.649Z,3.74
2023-02-02T01:28:06.217Z,3.96
2023-02-02T01:30:33.265Z,3.80
2023-02-02T01:33:00.202Z,4.10
2023-02-02T01:35:27.272Z,3.84
2023-02-02T01:37:55.170Z,4.07
2023-02-02T01:40:22.262Z,3.49
2023-02-02T01:42:49.103Z,4.09
2023-02-02T01:45:29.455Z,3.84
2023-02-02T01:48:16.802Z,4.07
2023-02-02T01:51:22.818Z,4.19
2023-02-02T01:54:12.619Z,3.48
2023-02-02T01:57:08.829Z,4.11
2023-02-02T01:59:52.141Z,4.01
2023-02-02T02:02:19.770Z,3.84
2023-02-02T02:04:50.369Z,3.77
2023-02-02T02:07:18.839Z,3.99
2023-02-02T02:09:45.813Z,4.00
2023-02-02T02:12:15.596Z,4.41
2023-02-02T02:15:07.288Z,4.12
2023-02-02T02:18:07.844Z,4.52
2023-02-02T02:21:22.207Z,4.44
2023-02-02T02:24:46.945Z,4.54
2023-02-02T02:27:45.056Z,4.48
2023-02-02T02:30:25.005Z,4.51
2023-02-02T02:33:02.721Z,4.30
2023-02-02T02:35:57.835Z,4.34
2023-02-02T02:38:51.742Z,4.32
2023-02-02T02:41:31.049Z,4.13
2023-02-02T02:44:15.747Z,4.25
2023-02-02T02:46:43.624Z,4.48
2023-02-02T02:49:12.786Z,4.37
2023-02-02T02:51:49.987Z,4.38
2023-02-02T02:54:46.077Z,4.14
2023-02-02T02:57:46.886Z,4.19
2023-02-02T03:00:56.860Z,4.15
2023-02-02T03:03:59.175Z,4.05
2023-02-02T03:06:49.369Z,3.77
2023-02-02T03:09:41.888Z,3.92
2023-02-02T03:12:22.574Z,3.90
2023-02-02T03:14:49.573Z,4.08
2023-02-02T03:17:36.904Z,3.87
2023-02-02T03:20:37.874Z,3.84
2023-02-02T03:23:18.572Z,3.94
2023-02-02T03:25:46.152Z,3.49
2023-02-02T03:28:15.663Z,3.77
2023-02-02T03:30:44.314Z,3.87
2023-02-02T03:33:12.980Z,3.59
2023-02-02T03:35:40.102Z,3.68
2023-02-02T03:38:07.129Z,3.60
2023-02-02T03:40:33.993Z,3.59
2023-02-02T03:43:01.034Z,3.64
2023-02-02T03:45:28.661Z,3.60
2023-02-02T03:47:55.584Z,3.91
2023-02-02T03:50:22.515Z,3.81
2023-02-02T03:52:49.389Z,3.67
2023-02-02T03:55:36.909Z,3.48
2023-02-02T03:58:25.950Z,3.43
2023-02-02T04:01:20.925Z,3.30
2023-02-02T04:04:21.943Z,3.32
2023-02-02T04:07:16.148Z,3.35
2023-02-02T04:09:43.165Z,3.91
2023-02-02T04:12:10.161Z,3.71
2023-02-02T04:14:37.102Z,4.02
2023-02-02T04:17:24.036Z,4.06
2023-02-02T04:20:07.342Z,3.95
2023-02-02T04:22:35.314Z,3.75
2023-02-02T04:25:02.373Z,3.30
2023-02-02T04:27:32.672Z,3.40
2023-02-02T04:30:12.950Z,3.07
2023-02-02T04:32:55.252Z,3.06
2023-02-02T04:35:22.303Z,3.00
2023-02-02T04:37:49.517Z,2.63
2023-02-02T04:40:16.567Z,2.53
2023-02-02T04:42:45.424Z,2.50
2023-02-02T04:45:12.523Z,2.60
2023-02-02T04:47:39.469Z,2.29
2023-02-02T04:50:07.942Z,2.14
2023-02-02T04:52:35.498Z,2.24
2023-02-02T04:55:02.550Z,1.97
2023-02-02T04:57:49.926Z,2.00
2023-02-02T05:00:50.956Z,1.87
2023-02-02T05:03:31.628Z,2.01
2023-02-02T05:06:03.280Z,1.65
2023-02-02T05:08:30.872Z,2.43
2023-02-02T05:10:57.793Z,2.23
2023-02-02T05:13:24.825Z,2.30
2023-02-02T05:16:11.968Z,2.58
2023-02-02T05:19:06.033Z,2.34
2023-02-02T05:21:56.599Z,2.20
2023-02-02T05:24:23.568Z,2.00
2023-02-02T05:26:50.839Z,2.14
2023-02-02T05:29:37.937Z,1.81
2023-02-02T05:32:38.927Z,1.94
2023-02-02T05:35:21.413Z,1.82
2023-02-02T05:37:48.416Z,1.74
2023-02-02T05:40:15.709Z,1.99
2023-02-02T05:42:42.625Z,1.70
2023-02-02T05:45:10.222Z,1.96
2023-02-02T05:47:37.141Z,1.59
2023-02-02T05:50:04.226Z,1.77
2023-02-02T05:52:34.793Z,2.29
2023-02-02T05:55:01.986Z,2.43
2023-02-02T05:57:49.967Z,2.48
2023-02-02T06:00:51.019Z,2.77
2023-02-02T06:03:52.014Z,2.59
2023-02-02T06:06:54.943Z,2.34
2023-02-02T06:09:35.562Z,2.28
2023-02-02T06:12:02.606Z,2.17
2023-02-02T06:14:29.623Z,2.28
2023-02-02T06:17:16.959Z,2.08
2023-02-02T06:19:57.539Z,1.98
2023-02-02T06:22:24.548Z,1.49
2023-02-02T06:24:53.494Z,1.57
2023-02-02T06:27:21.153Z,1.33
2023-02-02T06:29:48.125Z,1.40
2023-02-02T06:32:15.307Z,1.63
2023-02-02T06:34:42.333Z,1.50
2023-02-02T06:37:09.228Z,1.58
2023-02-02T06:39:36.215Z,1.35
2023-02-02T06:42:19.253Z,1.77
2023-02-02T06:44:48.026Z,1.79
2023-02-02T06:47:14.962Z,1.80
2023-02-02T06:49:41.851Z,1.84
2023-02-02T06:52:08.753Z,1.89
2023-02-02T06:54:35.740Z,2.01
2023-02-02T06:57:22.967Z,1.96
2023-02-02T07:00:25.067Z,2.22
2023-02-02T07:03:25.962Z,2.10
2023-02-02T07:06:14.371Z,2.45
2023-02-02T07:08:42.020Z,2.36
2023-02-02T07:11:15.605Z,2.50
2023-02-02T07:14:18.068Z,2.72
2023-02-02T07:17:19.080Z,2.91
2023-02-02T07:19:59.643Z,2.87
2023-02-02T07:22:26.627Z,2.87
2023-02-02T07:24:53.664Z,2.86
2023-02-02T07:27:23.574Z,3.23
2023-02-02T07:30:11.008Z,3.07
2023-02-02T07:33:11.998Z,3.22
2023-02-02T07:35:52.914Z,3.44
2023-02-02T07:38:19.997Z,3.44
2023-02-02T07:40:47.137Z,3.13
2023-02-02T07:43:14.059Z,3.62
2023-02-02T07:45:41.436Z,3.49
2023-02-02T07:48:08.540Z,3.50
2023-02-02T07:50:35.512Z,3.67
2023-02-02T07:53:02.536Z,3.60
2023-02-02T07:55:50.098Z,4.07
2023-02-02T07:58:30.719Z,4.16
2023-02-02T08:01:01.607Z,4.28
2023-02-02T08:03:50.054Z,4.35
2023-02-02T08:06:53.052Z,4.44
2023-02-02T08:09:33.613Z,4.66
2023-02-02T08:12:02.459Z,5.01
2023-02-02T08:14:29.683Z,5.20
2023-02-02T08:17:17.050Z,5.27
2023-02-02T08:20:20.030Z,5.51
2023-02-02T08:23:22.074Z,5.88
2023-02-02T08:26:18.053Z,6.10
2023-02-02T08:28:48.257Z,5.95
2023-02-02T08:31:18.939Z,5.88
2023-02-02T08:33:46.069Z,6.19
2023-02-02T08:36:18.986Z,5.69
2023-02-02T08:38:46.430Z,6.00
2023-02-02T08:41:16.013Z,6.27
2023-02-02T08:43:43.368Z,6.33
2023-02-02T08:46:12.443Z,5.35
2023-02-02T08:48:40.059Z,6.24
2023-02-02T08:51:10.023Z,6.45
2023-02-02T08:53:37.059Z,6.41
2023-02-02T08:56:31.067Z,6.83
2023-02-02T08:59:32.049Z,6.72
2023-02-02T09:02:33.178Z,6.49
2023-02-02T09:05:13.880Z,6.75
2023-02-02T09:07:40.986Z,7.03
2023-02-02T09:10:08.293Z,6.67
2023-02-02T09:12:55.052Z,6.70
2023-02-02T09:15:58.063Z,7.66
2023-02-02T09:19:00.118Z,7.58
2023-02-02T09:21:40.820Z,7.56
2023-02-02T09:24:10.900Z,8.18
2023-02-02T09:26:40.434Z,8.31
2023-02-02T09:29:11.807Z,8.60
2023-02-02T09:31:39.490Z,8.66
2023-02-02T09:34:09.153Z,8.64
2023-02-02T09:36:37.504Z,9.02
2023-02-02T09:39:27.049Z,8.99
2023-02-02T09:42:29.254Z,9.28
2023-02-02T09:45:02.163Z,9.55
2023-02-02T09:47:52.485Z,9.78
2023-02-02T09:50:43.697Z,9.86
2023-02-02T09:53:10.738Z,9.72
2023-02-02T09:56:02.181Z,9.57
2023-02-02T09:58:49.362Z,9.65
2023-02-02T10:01:27.855Z,9.91
2023-02-02T10:04:27.108Z,10.14
2023-02-02T10:07:33.283Z,10.31
2023-02-02T10:10:53.067Z,10.40
2023-02-02T10:13:38.197Z,10.00
2023-02-02T10:16:31.132Z,9.60
2023-02-02T10:19:37.138Z,10.28
2023-02-02T10:22:30.099Z,10.71
2023-02-02T10:25:34.093Z,11.32
2023-02-02T10:28:12.413Z,11.01
2023-02-02T10:30:46.488Z,11.44
2023-02-02T10:33:19.050Z,11.66
2023-02-02T10:36:10.500Z,11.38
2023-02-02T10:39:12.122Z,11.46
2023-02-02T10:42:11.386Z,11.32
2023-02-02T10:45:08.086Z,11.48
2023-02-02T10:47:50.918Z,10.99
2023-02-02T10:50:22.578Z,10.70
2023-02-02T10:52:58.256Z,11.17
2023-02-02T10:55:54.133Z,11.19
2023-02-02T10:58:50.842Z,11.47
2023-02-02T11:01:38.163Z,11.16
2023-02-02T11:04:40.286Z,11.36
2023-02-02T11:07:07.607Z,11.17
2023-02-02T11:09:41.234Z,11.65
2023-02-02T11:12:36.318Z,11.28
2023-02-02T11:15:37.148Z,11.72
2023-02-02T11:18:35.298Z,12.05
2023-02-02T11:21:32.153Z,12.14
2023-02-02T11:24:23.949Z,11.83
2023-02-02T11:26:58.202Z,12.20
2023-02-02T11:29:43.062Z,12.44
2023-02-02T11:32:33.312Z,12.14
2023-02-02T11:35:22.383Z,12.43
2023-02-02T11:38:16.731Z,12.82
2023-02-02T11:40:45.907Z,12.82
2023-02-02T11:43:43.178Z,12.92
2023-02-02T11:46:45.296Z,13.01
2023-02-02T11:49:26.457Z,13.21
2023-02-02T11:52:02.251Z,12.88
2023-02-02T11:54:33.238Z,12.56
2023-02-02T11:57:24.181Z,12.96
2023-02-02T12:00:10.815Z,13.02
2023-02-02T12:02:37.937Z,12.59
2023-02-02T12:05:20.139Z,12.94
2023-02-02T12:07:48.934Z,13.02
2023-02-02T12:10:54.563Z,13.17
2023-02-02T12:13:53.950Z,13.12
2023-02-02T12:16:44.279Z,13.09
2023-02-02T12:19:24.691Z,13.24
2023-02-02T12:22:00.772Z,13.27
2023-02-02T12:24:31.369Z,13.25
2023-02-02T12:27:23.173Z,13.17
2023-02-02T12:30:09.024Z,13.14
2023-02-02T12:33:25.156Z,13.05
2023-02-02T12:36:26.819Z,13.31
2023-02-02T12:39:09.159Z,13.22
2023-02-02T12:41:39.332Z,13.24
2023-02-02T12:44:36.191Z,12.63
2023-02-02T12:47:55.179Z,13.23
2023-02-02T12:51:20.432Z,13.27
2023-02-02T12:54:33.144Z,13.17
2023-02-02T12:57:15.182Z,12.90
2023-02-02T13:00:17.837Z,13.14
2023-02-02T13:03:22.771Z,13.23
2023-02-02T13:06:37.229Z,12.98
2023-02-02T13:10:11.186Z,13.16
2023-02-02T13:13:02.495Z,11.82
2023-02-02T13:15:38.964Z,12.94
2023-02-02T13:18:49.233Z,12.03
2023-02-02T13:21:52.309Z,12.58
2023-02-02T13:24:37.427Z,13.25
2023-02-02T13:27:07.840Z,13.07
2023-02-02T13:30:01.543Z,13.32
2023-02-02T13:32:55.299Z,12.88
2023-02-02T13:35:46.630Z,13.20
2023-02-02T13:38:16.139Z,12.93
2023-02-02T13:41:09.399Z,12.93
2023-02-02T13:44:36.214Z,13.07
2023-02-02T13:47:50.480Z,13.00
2023-02-02T13:51:21.285Z,12.67
2023-02-02T13:54:10.706Z,13.12
2023-02-02T13:57:21.315Z,13.16
2023-02-02T14:00:05.172Z,12.98
2023-02-02T14:02:48.082Z,12.92
2023-02-02T14:05:26.448Z,12.78
2023-02-02T14:08:16.245Z,13.04
2023-02-02T14:11:21.312Z,12.80
2023-02-02T14:21:40.410Z,12.84
2023-02-02T14:26:26.080Z,12.94
2023-02-02T14:49:48.735Z,12.67
2023-02-02T15:03:24.681Z,10.87
2023-02-02T15:06:17.254Z,11.78
2023-02-02T15:09:20.224Z,12.16
2023-02-02T15:12:01.285Z,12.08
2023-02-02T15:14:53.598Z,12.07
2023-02-02T15:17:41.830Z,12.00
2023-02-02T15:20:43.288Z,11.95
2023-02-02T15:23:41.356Z,11.83
2023-02-02T15:26:31.219Z,11.24
2023-02-02T15:29:16.610Z,11.51
2023-02-02T15:31:47.586Z,11.43
2023-02-02T15:34:39.315Z,11.60
2023-02-02T15:37:30.327Z,11.15
2023-02-02T15:40:03.138Z,11.09
2023-02-02T15:43:01.426Z,11.35
2023-02-02T15:46:09.281Z,11.20
2023-02-02T15:49:33.885Z,11.08
2023-02-02T15:52:11.665Z,10.94
2023-02-02T15:54:38.836Z,10.62
2023-02-02T15:57:39.244Z,10.50
2023-02-02T16:00:40.386Z,10.74
2023-02-02T16:03:51.384Z,10.48
2023-02-02T16:06:34.855Z,10.55
2023-02-02T16:09:07.085Z,10.39
2023-02-02T16:11:41.472Z,10.34
2023-02-02T16:14:17.713Z,10.30
2023-02-02T16:16:47.560Z,10.52
2023-02-02T16:19:20.432Z,10.31
2023-02-02T16:21:47.388Z,10.27
2023-02-02T16:24:24.111Z,9.84
2023-02-02T16:26:53.207Z,10.30
2023-02-02T16:29:21.143Z,10.26
2023-02-02T16:31:49.705Z,9.96
2023-02-02T16:34:54.269Z,10.09
2023-02-02T16:37:36.553Z,9.24
2023-02-02T16:40:22.549Z,10.12
2023-02-02T16:43:37.283Z,9.88
2023-02-02T16:46:57.391Z,9.53
2023-02-02T16:49:51.284Z,9.55
2023-02-02T16:52:21.422Z,9.58
2023-02-02T16:55:11.312Z,9.55
2023-02-02T16:58:12.311Z,9.51
2023-02-02T17:01:13.541Z,9.58
2023-02-02T17:03:52.636Z,9.48
2023-02-02T17:06:35.736Z,9.44
2023-02-02T17:09:36.092Z,9.37
2023-02-02T17:12:12.365Z,9.47
2023-02-02T17:15:04.992Z,9.34
2023-02-02T17:17:31.881Z,9.37
2023-02-02T17:19:59.118Z,9.48
2023-02-02T17:22:27.872Z,9.14
2023-02-02T17:24:54.979Z,9.37
2023-02-02T17:27:26.900Z,9.43
2023-02-02T17:29:54.491Z,9.60
2023-02-02T17:32:21.452Z,9.46
2023-02-02T17:35:08.313Z,8.89
2023-02-02T17:38:10.313Z,9.43
2023-02-02T17:40:51.683Z,9.48
2023-02-02T17:43:38.320Z,9.51
2023-02-02T17:46:40.315Z,9.13
2023-02-02T17:49:21.722Z,9.06
2023-02-02T17:51:50.791Z,9.14
2023-02-02T17:54:17.886Z,9.25
2023-02-02T17:57:05.310Z,9.01
2023-02-02T17:59:47.040Z,8.57
2023-02-02T18:02:16.197Z,9.07
2023-02-02T18:05:03.338Z,8.75
2023-02-02T18:07:44.168Z,8.92
2023-02-02T18:10:13.881Z,8.94
2023-02-02T18:12:41.734Z,8.71
2023-02-02T18:15:12.781Z,8.93
2023-02-02T18:17:39.782Z,8.86
2023-02-02T18:20:07.328Z,8.86
2023-02-02T18:22:34.336Z,8.67
2023-02-02T18:25:01.246Z,8.43
2023-02-02T18:27:31.207Z,8.73
2023-02-02T18:30:18.358Z,8.37
2023-02-02T18:32:59.280Z,8.45
2023-02-02T18:35:46.391Z,8.43
2023-02-02T18:38:26.839Z,8.30
2023-02-02T18:40:57.367Z,8.36
2023-02-02T18:43:24.380Z,8.26
2023-02-02T18:46:17.881Z,8.24
2023-02-02T18:48:44.868Z,8.06
2023-02-02T18:51:18.316Z,8.13
2023-02-02T18:54:07.374Z,8.18
2023-02-02T18:57:08.456Z,7.87
2023-02-02T18:59:49.840Z,7.96
2023-02-02T19:02:19.756Z,7.88
2023-02-02T19:05:05.156Z,7.59
2023-02-02T19:07:51.028Z,7.62
2023-02-02T19:10:19.653Z,7.28
2023-02-02T19:13:10.741Z,7.28
2023-02-02T19:15:39.431Z,7.30
2023-02-02T19:18:25.506Z,7.10
2023-02-02T19:21:11.788Z,6.93
2023-02-02T19:23:41.307Z,6.51
2023-02-02T19:26:24.651Z,6.53
2023-02-02T19:28:53.093Z,6.42
2023-02-02T19:31:20.155Z,6.40
2023-02-02T19:34:07.419Z,6.23
2023-02-02T19:37:08.387Z,6.25
2023-02-02T19:39:49.045Z,5.98
2023-02-02T19:42:16.111Z,5.89
2023-02-02T19:44:43.036Z,6.20
2023-02-02T19:47:26.164Z,6.24
2023-02-02T19:49:54.727Z,6.35
2023-02-02T19:52:26.280Z,6.30
2023-02-02T19:55:13.410Z,6.51
2023-02-02T19:58:36.381Z,6.26
2023-02-02T20:01:20.803Z,6.45
2023-02-02T20:03:47.917Z,6.19
2023-02-02T20:06:24.742Z,6.28
2023-02-02T20:08:52.661Z,6.67
2023-02-02T20:11:35.579Z,6.47
2023-02-02T20:14:18.830Z,6.47
2023-02-02T20:16:50.717Z,6.29
2023-02-02T20:19:33.736Z,6.40
2023-02-02T20:22:34.412Z,6.30
2023-02-02T20:25:06.667Z,6.69
2023-02-02T20:27:34.261Z,6.79
2023-02-02T20:30:18.687Z,6.85
2023-02-02T20:32:46.250Z,6.79
2023-02-02T20:35:38.440Z,6.62
2023-02-02T20:38:42.437Z,6.76
2023-02-02T20:41:23.206Z,6.58
2023-02-02T20:43:50.113Z,6.36
2023-02-02T20:46:17.187Z,6.48
2023-02-02T20:48:44.296Z,6.53
2023-02-02T20:51:11.266Z,6.39
2023-02-02T20:54:02.434Z,6.33
2023-02-02T20:57:04.609Z,6.60
2023-02-02T20:59:45.764Z,6.33
2023-02-02T21:02:22.709Z,6.93
2023-02-02T21:04:51.328Z,6.92
2023-02-02T21:07:20.926Z,7.05
2023-02-02T21:09:50.143Z,6.93
2023-02-02T21:12:17.954Z,6.49
2023-02-02T21:14:47.614Z,6.53
2023-02-02T21:17:34.460Z,6.13
2023-02-02T21:20:35.421Z,6.26
2023-02-02T21:23:16.779Z,5.97
2023-02-02T21:25:43.758Z,5.85
2023-02-02T21:28:10.793Z,5.50
2023-02-02T21:30:37.830Z,5.65
2023-02-02T21:33:24.476Z,5.72
2023-02-02T21:36:51.457Z,5.85
2023-02-02T21:40:00.498Z,5.16
2023-02-02T21:42:47.443Z,5.78
2023-02-02T21:45:20.595Z,5.50
2023-02-02T21:47:53.841Z,5.06
2023-02-02T21:50:28.737Z,5.31
2023-02-02T21:53:14.552Z,5.39
2023-02-02T21:56:05.543Z,5.77
2023-02-02T21:59:06.444Z,5.84
2023-02-02T22:01:57.975Z,5.81
2023-02-02T22:04:28.479Z,5.66
2023-02-02T22:07:00.038Z,5.37
2023-02-02T22:09:37.012Z,5.49
2023-02-02T22:12:12.224Z,5.75
2023-02-02T22:14:44.543Z,5.44
2023-02-02T22:17:14.364Z,5.84
2023-02-02T22:19:43.667Z,6.21
2023-02-02T22:22:16.634Z,6.08
2023-02-02T22:24:53.295Z,5.89
2023-02-02T22:27:55.510Z,6.23
2023-02-02T22:30:38.754Z,5.93
2023-02-02T22:33:07.729Z,6.12
2023-02-02T22:35:55.501Z,6.51
2023-02-02T22:38:36.132Z,6.63
2023-02-02T22:41:03.212Z,6.51
2023-02-02T22:43:30.114Z,6.35
2023-02-02T22:45:57.075Z,6.33
2023-02-02T22:48:24.044Z,5.64
2023-02-02T22:50:53.812Z,5.87
2023-02-02T22:53:20.914Z,6.02
2023-02-02T22:56:07.551Z,6.21
2023-02-02T22:59:10.486Z,5.98
2023-02-02T23:02:05.627Z,6.24
2023-02-02T23:04:32.701Z,5.99
2023-02-02T23:06:59.594Z,5.65
2023-02-02T23:09:26.468Z,6.48
2023-02-02T23:11:53.323Z,6.28
2023-02-02T23:14:20.115Z,5.82
2023-02-02T23:16:47.024Z,6.10
2023-02-02T23:19:13.929Z,6.20
2023-02-02T23:21:40.753Z,6.02
2023-02-02T23:24:08.015Z,5.95
2023-02-02T23:26:34.859Z,6.23
2023-02-02T23:29:01.845Z,6.03
2023-02-02T23:31:28.952Z,5.89
2023-02-02T23:34:16.498Z,6.10
2023-02-02T23:37:17.494Z,6.40
2023-02-02T23:40:19.521Z,6.21
2023-02-02T23:43:00.028Z,6.30
2023-02-02T23:45:27.394Z,6.10
2023-02-02T23:47:54.523Z,6.27
2023-02-02T23:50:21.350Z,6.11
2023-02-02T23:52:48.501Z,5.93
2023-02-02T23:55:35.521Z,5.81
2023-02-02T23:58:23.053Z,5.87
